Time;durP1;ratioP1;P1;durP2;ratioP2;P2;SDS_P1;SDS_P2;PMS_P1;PMS_P2;Temp;Humidity;BMP_temperature;BMP_pressure;BME280_temperature;BME280_humidity;BME280_pressure;Samples;Min_cycle;Max_cycle;Signal;HPM_P1;HPM_P2
2022/10/08 00:02:21;;;;;;;17.02;12.45;;;11.00;99.90;;;;;;5201467;28;20275;-77
2022/10/08 00:05:02;;;;;;;16.85;11.30;;;10.90;99.90;;;;;;5189218;28;20254;-77
2022/10/08 00:07:33;;;;;;;15.45;11.57;;;10.90;99.90;;;;;;5209508;28;20264;-75
2022/10/08 00:10:06;;;;;;;18.52;11.70;;;10.90;99.90;;;;;;5172725;28;20032;-76
2022/10/08 00:12:40;;;;;;;15.23;11.57;;;10.90;99.90;;;;;;5197873;28;20369;-75
2022/10/08 00:15:15;;;;;;;15.85;11.43;;;10.80;99.90;;;;;;5192354;28;20021;-75
2022/10/08 00:17:46;;;;;;;;;;;10.80;99.90;;;;;;5201608;28;20037;-75
2022/10/08 00:20:17;;;;;;;14.35;10.85;;;10.70;99.90;;;;;;5201441;28;19920;-76
2022/10/08 00:22:48;;;;;;;16.38;12.10;;;10.70;99.90;;;;;;5201672;28;20029;-77
2022/10/08 00:25:23;;;;;;;15.05;11.48;;;10.70;99.90;;;;;;5201133;28;20428;-76
2022/10/08 00:27:55;;;;;;;15.00;11.77;;;10.70;99.90;;;;;;5200012;28;20249;-76
2022/10/08 00:30:26;;;;;;;17.35;12.30;;;10.70;99.90;;;;;;5201590;28;20036;-75
2022/10/08 00:32:57;;;;;;;17.25;12.40;;;10.70;99.90;;;;;;5200731;28;20231;-75
2022/10/08 00:35:38;;;;;;;21.17;13.05;;;10.70;99.90;;;;;;5212406;28;20032;-76
2022/10/08 00:38:10;;;;;;;22.95;13.63;;;10.70;99.90;;;;;;5205643;28;20048;-76
2022/10/08 00:40:44;;;;;;;18.42;12.20;;;10.70;99.90;;;;;;5204147;28;20029;-77
2022/10/08 00:43:18;;;;;;;15.60;11.70;;;10.70;99.90;;;;;;5197025;28;20292;-76
2022/10/08 00:45:49;;;;;;;16.23;11.18;;;10.70;99.90;;;;;;5199728;28;20030;-75
2022/10/08 00:48:24;;;;;;;18.27;11.68;;;10.60;99.90;;;;;;5198071;28;20225;-76
2022/10/08 00:51:01;;;;;;;17.77;11.40;;;10.70;99.90;;;;;;5192650;28;20029;-77
2022/10/08 00:53:33;;;;;;;15.65;12.07;;;10.70;99.90;;;;;;5182600;28;20064;-76
2022/10/08 00:56:05;;;;;;;14.20;10.88;;;10.60;99.90;;;;;;5201261;28;20283;-76
2022/10/08 00:58:37;;;;;;;14.35;11.40;;;10.60;99.90;;;;;;5200684;28;20029;-76
2022/10/08 01:01:09;;;;;;;18.77;12.50;;;10.60;99.90;;;;;;5201545;28;20030;-76
2022/10/08 01:03:40;;;;;;;18.58;11.93;;;10.60;99.90;;;;;;5211548;28;20154;-76
2022/10/08 01:06:47;;;;;;;16.33;12.02;;;10.60;99.90;;;;;;5211118;28;20050;-77
2022/10/08 01:09:32;;;;;;;17.48;12.38;;;10.60;99.90;;;;;;5223080;28;20237;-77
2022/10/08 01:12:15;;;;;;;18.38;12.45;;;10.60;99.90;;;;;;5206822;28;20025;-76
2022/10/08 01:14:55;;;;;;;15.90;12.57;;;10.60;99.90;;;;;;5208163;28;20024;-76
2022/10/08 01:17:36;;;;;;;17.33;12.68;;;10.50;99.90;;;;;;5203519;28;20381;-76
2022/10/08 01:20:26;;;;;;;18.30;12.85;;;10.50;99.90;;;;;;5201761;28;20219;-76
2022/10/08 01:23:25;;;;;;;15.40;11.90;;;10.60;99.90;;;;;;5200820;28;20025;-76
2022/10/08 01:26:17;;;;;;;19.25;12.00;;;10.70;99.90;;;;;;5199404;28;20033;-76
2022/10/08 01:29:00;;;;;;;16.73;12.88;;;10.90;99.90;;;;;;5182002;28;20029;-76
2022/10/08 01:31:43;;;;;;;22.20;13.75;;;11.00;99.90;;;;;;5198128;28;20029;-76
2022/10/08 01:34:23;;;;;;;16.55;12.00;;;11.10;99.90;;;;;;5180318;28;20033;-76
2022/10/08 01:36:57;;;;;;;16.73;12.40;;;11.20;99.90;;;;;;5208594;28;20033;-76
2022/10/08 01:39:31;;;;;;;15.88;11.75;;;11.10;99.90;;;;;;5195477;28;20437;-76
2022/10/08 01:42:06;;;;;;;14.90;10.98;;;11.10;99.90;;;;;;5197390;28;20041;-76
2022/10/08 01:44:46;;;;;;;;;;;11.00;99.90;;;;;;5199001;28;20049;-76
2022/10/08 01:47:25;;;;;;;11.70;10.13;;;10.90;99.90;;;;;;5198511;28;19909;-76
2022/10/08 01:50:27;;;;;;;13.85;10.43;;;10.90;99.90;;;;;;5197625;28;20021;-76
2022/10/08 01:53:06;;;;;;;12.85;10.35;;;10.80;99.90;;;;;;5189855;28;20045;-76
2022/10/08 01:55:45;;;;;;;13.55;11.27;;;10.80;99.90;;;;;;5198204;28;20025;-76
2022/10/08 01:58:37;;;;;;;16.38;11.98;;;10.80;99.90;;;;;;5197505;28;20029;-76
2022/10/08 02:01:15;;;;;;;15.80;12.43;;;10.80;99.90;;;;;;5198593;28;20029;-75
2022/10/08 02:06:42;;;;;;;14.50;11.43;;;10.70;99.90;;;;;;5185358;28;20049;-77
2022/10/08 02:09:14;;;;;;;18.02;10.90;;;10.60;99.90;;;;;;5198660;28;20028;-76
2022/10/08 02:11:45;;;;;;;16.08;12.70;;;10.60;99.90;;;;;;5190381;28;20047;-75
2022/10/08 02:14:20;;;;;;;15.18;11.70;;;10.50;99.90;;;;;;5199247;28;20029;-77
2022/10/08 02:17:16;;;;;;;13.55;10.55;;;10.40;99.90;;;;;;5200440;28;20032;-75
2022/10/08 02:20:19;;;;;;;15.57;11.93;;;10.40;99.90;;;;;;5215773;28;20028;-76
2022/10/08 02:22:57;;;;;;;17.50;12.55;;;10.40;99.90;;;;;;5176622;28;20049;-76
2022/10/08 02:25:37;;;;;;;16.77;13.25;;;10.50;99.90;;;;;;5177632;28;20044;-76
2022/10/08 02:28:17;;;;;;;17.92;12.48;;;10.50;99.90;;;;;;5180398;28;20038;-76
2022/10/08 02:30:54;;;;;;;13.55;10.82;;;10.40;99.90;;;;;;5162930;28;20658;-76
2022/10/08 02:33:50;;;;;;;21.50;13.68;;;10.30;99.90;;;;;;5177755;28;20048;-75
2022/10/08 02:36:26;;;;;;;18.10;12.48;;;10.30;99.90;;;;;;5166906;28;20564;-75
2022/10/08 02:39:04;;;;;;;22.50;14.65;;;10.30;99.90;;;;;;5174810;28;20029;-76
2022/10/08 02:41:42;;;;;;;21.73;14.20;;;10.30;99.90;;;;;;5156666;28;20029;-76
2022/10/08 02:44:29;;;;;;;21.58;14.65;;;10.30;99.90;;;;;;5175295;28;20026;-77
2022/10/08 02:47:06;;;;;;;19.70;14.23;;;10.30;99.90;;;;;;5174460;28;20725;-77
2022/10/08 02:49:46;;;;;;;27.00;16.85;;;10.20;99.90;;;;;;5158361;28;20580;-77
2022/10/08 02:52:20;;;;;;;30.65;18.35;;;10.30;99.90;;;;;;5155523;28;20036;-75
2022/10/08 02:55:00;;;;;;;28.42;16.83;;;10.30;99.90;;;;;;5171905;28;20021;-76
2022/10/08 02:57:46;;;;;;;31.95;18.75;;;10.30;99.90;;;;;;5157459;28;20026;-76
2022/10/08 03:00:20;;;;;;;31.77;19.67;;;10.30;99.90;;;;;;5202680;28;20104;-75
2022/10/08 03:03:00;;;;;;;29.92;18.80;;;10.30;99.90;;;;;;5190601;28;20064;-77
2022/10/08 03:05:31;;;;;;;33.03;20.15;;;10.30;99.90;;;;;;5203396;28;20391;-77
2022/10/08 03:08:04;;;;;;;29.23;18.17;;;10.30;99.90;;;;;;5204240;28;20041;-77
2022/10/08 03:10:38;;;;;;;30.27;19.67;;;10.20;99.90;;;;;;5196213;28;20482;-77
2022/10/08 03:13:11;;;;;;;30.33;19.85;;;10.20;99.90;;;;;;5197083;28;20021;-77
2022/10/08 03:15:48;;;;;;;27.13;17.50;;;10.20;99.90;;;;;;5199300;28;20052;-77
2022/10/08 03:18:21;;;;;;;26.52;17.33;;;10.10;99.90;;;;;;5196866;28;20025;-77
2022/10/08 03:20:54;;;;;;;28.00;17.75;;;10.10;99.90;;;;;;5196617;28;20025;-75
2022/10/08 03:23:31;;;;;;;30.50;16.27;;;10.10;99.90;;;;;;5196481;28;20039;-75
2022/10/08 03:26:02;;;;;;;28.40;17.17;;;10.00;99.90;;;;;;5195915;28;20519;-77
2022/10/08 03:28:38;;;;;;;33.67;18.95;;;10.10;99.90;;;;;;5196116;28;20033;-76
2022/10/08 03:31:10;;;;;;;32.67;18.55;;;10.20;99.90;;;;;;5195888;28;20028;-76
2022/10/08 03:33:48;;;;;;;33.30;19.73;;;10.10;99.90;;;;;;5193954;28;20538;-77
2022/10/08 03:36:21;;;;;;;39.67;22.08;;;10.10;99.90;;;;;;5195333;28;20329;-75
2022/10/08 03:38:55;;;;;;;49.85;23.70;;;10.10;99.90;;;;;;5196440;28;20063;-76
2022/10/08 03:41:30;;;;;;;47.87;24.07;;;10.20;99.90;;;;;;5195408;28;20075;-76
2022/10/08 03:44:07;;;;;;;40.13;20.80;;;10.20;99.90;;;;;;5196324;28;20800;-75
2022/10/08 03:46:44;;;;;;;48.55;25.13;;;10.10;99.90;;;;;;5196021;28;20030;-76
2022/10/08 03:49:15;;;;;;;43.80;22.98;;;10.10;99.90;;;;;;5196033;28;20021;-76
2022/10/08 03:51:51;;;;;;;44.00;23.27;;;10.10;99.90;;;;;;5195961;28;20042;-75
2022/10/08 03:54:23;;;;;;;44.95;24.45;;;10.00;99.90;;;;;;5196402;28;20055;-78
2022/10/08 03:56:54;;;;;;;50.72;24.65;;;10.10;99.90;;;;;;5195638;28;20060;-77
2022/10/08 03:59:25;;;;;;;43.90;24.27;;;10.20;99.90;;;;;;5194762;28;20029;-77
2022/10/08 04:01:56;;;;;;;45.05;24.13;;;10.10;99.90;;;;;;5194054;28;20033;-77
2022/10/08 04:04:30;;;;;;;45.33;23.77;;;10.10;99.90;;;;;;5167367;28;20029;-76
2022/10/08 04:07:02;;;;;;;45.55;23.95;;;10.10;99.90;;;;;;5182099;28;20018;-75
2022/10/08 04:09:33;;;;;;;51.00;26.25;;;10.00;99.90;;;;;;5196376;28;20046;-76
2022/10/08 04:12:10;;;;;;;49.85;27.77;;;10.10;99.90;;;;;;5195744;28;20021;-75
2022/10/08 04:14:44;;;;;;;50.45;26.58;;;10.10;99.90;;;;;;5194226;28;20044;-76
2022/10/08 04:17:15;;;;;;;59.15;27.45;;;10.00;99.90;;;;;;5196196;28;20033;-78
2022/10/08 04:19:46;;;;;;;59.25;29.00;;;10.00;99.90;;;;;;5179203;28;20033;-75
2022/10/08 04:22:23;;;;;;;60.30;30.60;;;10.00;99.90;;;;;;5196480;28;20734;-76
2022/10/08 04:24:54;;;;;;;63.00;26.77;;;10.20;99.90;;;;;;5192136;28;20029;-78
2022/10/08 04:27:26;;;;;;;54.75;26.63;;;10.30;99.90;;;;;;5169800;28;20025;-76
2022/10/08 04:29:59;;;;;;;53.33;27.25;;;10.30;99.90;;;;;;5181616;28;20032;-76
2022/10/08 04:32:36;;;;;;;60.35;27.75;;;10.30;99.90;;;;;;5193414;28;20022;-76
2022/10/08 04:35:10;;;;;;;55.03;27.05;;;10.30;99.90;;;;;;5155680;28;20334;-76
2022/10/08 04:37:47;;;;;;;61.58;28.35;;;10.40;99.90;;;;;;5220830;28;20029;-76
2022/10/08 04:40:18;;;;;;;57.35;27.88;;;10.60;99.90;;;;;;5199580;28;20048;-76
2022/10/08 04:42:53;;;;;;;71.13;40.40;;;10.70;99.90;;;;;;5199995;28;20025;-76
2022/10/08 04:45:24;;;;;;;55.92;31.73;;;10.80;99.90;;;;;;5199930;28;20021;-76
2022/10/08 04:47:55;;;;;;;57.92;27.05;;;10.80;99.90;;;;;;5199219;28;20023;-76
2022/10/08 04:50:26;;;;;;;47.72;24.65;;;10.80;99.90;;;;;;5198769;28;20021;-76
2022/10/08 04:52:58;;;;;;;45.35;24.10;;;10.80;99.90;;;;;;5198175;28;20603;-76
2022/10/08 04:55:29;;;;;;;49.05;24.95;;;10.80;99.90;;;;;;5197792;28;20063;-75
2022/10/08 04:58:00;;;;;;;40.38;21.45;;;10.80;99.90;;;;;;5199067;28;20364;-75
2022/10/08 05:00:34;;;;;;;42.83;23.83;;;10.90;99.90;;;;;;5198797;28;20027;-76
2022/10/08 05:03:05;;;;;;;41.28;22.42;;;11.00;99.90;;;;;;5196461;28;20029;-76
2022/10/08 05:05:46;;;;;;;49.47;25.38;;;11.00;99.90;;;;;;5200183;28;20053;-76
2022/10/08 05:08:20;;;;;;;46.25;23.70;;;11.10;99.90;;;;;;5187085;28;20369;-75
2022/10/08 05:10:51;;;;;;;45.92;23.40;;;11.10;99.90;;;;;;5166949;28;20033;-78
2022/10/08 05:13:22;;;;;;;51.20;24.02;;;11.20;99.90;;;;;;5168104;28;20025;-76
2022/10/08 05:15:54;;;;;;;41.03;23.23;;;11.30;99.90;;;;;;5171208;28;20052;-77
2022/10/08 05:18:25;;;;;;;51.40;24.67;;;11.40;99.90;;;;;;5156079;28;20041;-77
2022/10/08 05:21:04;;;;;;;45.90;25.55;;;11.40;99.90;;;;;;5171564;28;20025;-77
2022/10/08 05:23:38;;;;;;;47.13;23.83;;;11.40;99.90;;;;;;5172958;28;20026;-77
2022/10/08 05:26:16;;;;;;;;;;;11.50;99.90;;;;;;5171064;28;20030;-77
2022/10/08 05:28:48;;;;;;;36.47;21.75;;;11.50;99.90;;;;;;5179284;28;19910;-75
2022/10/08 05:31:19;;;;;;;49.85;24.63;;;11.50;99.90;;;;;;5176299;28;20030;-75
2022/10/08 05:33:52;;;;;;;43.65;22.13;;;11.60;99.90;;;;;;5173909;28;20030;-75
2022/10/08 05:36:31;;;;;;;43.08;21.85;;;11.70;99.90;;;;;;5170871;28;20019;-76
2022/10/08 05:39:04;;;;;;;45.60;23.52;;;11.90;99.90;;;;;;5167994;28;20021;-76
2022/10/08 05:41:36;;;;;;;44.85;23.67;;;12.00;99.90;;;;;;5167604;28;20101;-77
2022/10/08 05:44:10;;;;;;;35.05;21.48;;;12.00;99.90;;;;;;5171372;28;20496;-77
2022/10/08 05:46:41;;;;;;;32.10;20.60;;;12.10;99.90;;;;;;5157317;28;20038;-77
2022/10/08 05:49:20;;;;;;;35.33;20.40;;;12.10;99.90;;;;;;5176672;28;20044;-77
2022/10/08 05:51:51;;;;;;;31.35;19.52;;;12.10;99.90;;;;;;5156991;28;20034;-76
2022/10/08 05:54:22;;;;;;;34.20;19.77;;;12.20;99.90;;;;;;5167221;28;20033;-77
2022/10/08 05:56:56;;;;;;;36.10;20.48;;;12.20;99.90;;;;;;5181677;28;20223;-77
2022/10/08 05:59:32;;;;;;;33.10;19.73;;;12.30;99.90;;;;;;5177261;28;20033;-77
2022/10/08 06:02:04;;;;;;;28.42;17.80;;;12.40;99.90;;;;;;5175801;28;20052;-77
2022/10/08 06:04:35;;;;;;;32.92;20.17;;;12.50;99.90;;;;;;5168553;28;20054;-77
2022/10/08 06:07:09;;;;;;;34.58;20.05;;;12.60;99.90;;;;;;5162121;28;20037;-76
2022/10/08 06:09:40;;;;;;;30.75;19.38;;;12.70;99.90;;;;;;5178139;28;20034;-77
2022/10/08 06:12:12;;;;;;;29.88;18.73;;;12.70;99.90;;;;;;5176501;28;20033;-77
2022/10/08 06:14:46;;;;;;;28.13;18.00;;;12.70;99.90;;;;;;5160199;28;20026;-77
2022/10/08 06:17:17;;;;;;;28.38;18.00;;;12.70;99.90;;;;;;5177975;28;20201;-77
2022/10/08 06:19:54;;;;;;;30.25;18.33;;;12.70;99.90;;;;;;5177426;28;20034;-77
2022/10/08 06:22:28;;;;;;;28.33;17.60;;;12.80;99.90;;;;;;5178071;28;20033;-77
2022/10/08 06:24:59;;;;;;;30.98;18.63;;;13.00;99.90;;;;;;5178321;28;20034;-77
2022/10/08 06:27:31;;;;;;;31.50;17.23;;;13.00;99.90;;;;;;5177586;28;20446;-77
2022/10/08 06:30:02;;;;;;;26.75;16.75;;;13.10;99.90;;;;;;5178888;28;20026;-77
2022/10/08 06:32:37;;;;;;;28.08;19.50;;;13.10;99.90;;;;;;5179759;28;20035;-77
2022/10/08 06:35:10;;;;;;;29.73;17.63;;;13.10;99.90;;;;;;5188375;28;20029;-77
2022/10/08 06:37:44;;;;;;;37.30;21.08;;;13.30;99.90;;;;;;5183803;28;20038;-78
2022/10/08 06:40:16;;;;;;;36.22;21.02;;;13.40;99.90;;;;;;5183266;28;20044;-76
2022/10/08 06:42:47;;;;;;;31.38;18.75;;;13.60;99.90;;;;;;5190053;28;20030;-78
2022/10/08 06:45:18;;;;;;;29.42;17.92;;;13.60;99.90;;;;;;5187735;28;20026;-76
2022/10/08 06:47:49;;;;;;;33.60;21.50;;;13.70;99.90;;;;;;5184300;28;20034;-76
2022/10/08 06:50:20;;;;;;;29.63;16.63;;;13.70;99.90;;;;;;5159981;28;20057;-76
2022/10/08 06:52:52;;;;;;;41.45;21.33;;;13.80;99.90;;;;;;5179557;28;20081;-76
2022/10/08 06:55:23;;;;;;;38.75;21.00;;;13.80;99.90;;;;;;5182014;28;20033;-76
2022/10/08 06:57:57;;;;;;;47.08;20.65;;;14.00;99.90;;;;;;5181156;28;20358;-76
2022/10/08 07:00:31;;;;;;;39.75;19.38;;;14.00;99.90;;;;;;5181237;28;20365;-76
2022/10/08 07:03:02;;;;;;;34.03;18.67;;;14.10;99.90;;;;;;5180361;28;20034;-76
2022/10/08 07:05:33;;;;;;;40.10;19.85;;;14.20;99.90;;;;;;5185556;28;20598;-76
2022/10/08 07:08:07;;;;;;;52.10;21.65;;;14.20;99.90;;;;;;5202207;28;20027;-76
2022/10/08 07:10:38;;;;;;;36.92;18.98;;;14.30;99.90;;;;;;5176982;28;20030;-75
2022/10/08 07:13:10;;;;;;;33.90;18.00;;;14.30;99.90;;;;;;5179306;28;20060;-76
2022/10/08 07:15:46;;;;;;;39.90;19.55;;;14.40;99.90;;;;;;5177943;28;20034;-76
2022/10/08 07:18:18;;;;;;;29.83;17.20;;;14.60;99.90;;;;;;5163923;28;20050;-76
2022/10/08 07:20:55;;;;;;;41.97;18.65;;;14.70;99.90;;;;;;5172513;28;20032;-76
2022/10/08 07:23:30;;;;;;;32.65;17.50;;;14.90;99.90;;;;;;5191129;28;20029;-76
2022/10/08 07:26:09;;;;;;;36.90;18.58;;;15.00;99.90;;;;;;5172936;28;20030;-76
2022/10/08 07:28:49;;;;;;;36.78;16.40;;;15.20;99.90;;;;;;5168400;28;20038;-76
2022/10/08 07:31:26;;;;;;;38.00;18.92;;;15.20;99.90;;;;;;5175056;28;20136;-76
2022/10/08 07:33:59;;;;;;;35.85;19.27;;;15.30;99.90;;;;;;5164971;28;20015;-76
2022/10/08 07:36:33;;;;;;;37.28;17.63;;;15.40;99.90;;;;;;5173308;28;20028;-76
2022/10/08 07:39:13;;;;;;;32.53;18.60;;;15.50;99.90;;;;;;5175160;28;20010;-76
2022/10/08 07:41:45;;;;;;;28.58;16.27;;;15.50;99.90;;;;;;5147509;28;20034;-75
2022/10/08 07:44:16;;;;;;;26.27;15.10;;;15.30;99.90;;;;;;5135691;28;20045;-77
2022/10/08 07:46:49;;;;;;;30.58;16.60;;;15.40;99.90;;;;;;5137110;28;20022;-77
2022/10/08 07:49:21;;;;;;;26.75;15.38;;;15.30;99.90;;;;;;5153258;28;20028;-78
2022/10/08 07:51:54;;;;;;;29.45;16.70;;;15.30;99.90;;;;;;5170085;28;20026;-78
2022/10/08 07:54:28;;;;;;;29.63;16.58;;;15.40;99.90;;;;;;5154592;28;20196;-76
2022/10/08 07:57:01;;;;;;;29.87;17.13;;;15.40;99.90;;;;;;5169491;28;20328;-77
2022/10/08 07:59:32;;;;;;;28.40;15.90;;;15.50;99.90;;;;;;5153309;28;20026;-76
2022/10/08 08:02:03;;;;;;;27.92;16.75;;;15.50;99.90;;;;;;5173134;28;20160;-77
2022/10/08 08:04:34;;;;;;;24.42;15.00;;;15.10;99.90;;;;;;5172897;28;20353;-77
2022/10/08 08:07:07;;;;;;;20.92;13.85;;;15.40;99.90;;;;;;5216347;28;20460;-77
2022/10/08 08:09:40;;;;;;;22.85;14.07;;;15.50;99.90;;;;;;5195971;28;20360;-77
2022/10/08 08:12:12;;;;;;;26.77;14.20;;;15.60;99.90;;;;;;5215305;23;20123;-64
2022/10/08 08:14:43;;;;;;;24.88;15.70;;;15.70;99.90;;;;;;5219983;28;20132;-63
2022/10/08 08:17:14;;;;;;;23.73;15.50;;;15.70;99.90;;;;;;5219082;28;20229;-66
2022/10/08 08:19:45;;;;;;;24.55;15.32;;;15.80;99.90;;;;;;5217188;28;20037;-64
2022/10/08 08:22:17;;;;;;;22.35;14.32;;;15.70;99.90;;;;;;5216497;28;20596;-63
2022/10/08 08:24:51;;;;;;;18.67;13.10;;;15.80;99.90;;;;;;5216330;28;20051;-62
2022/10/08 08:27:22;;;;;;;18.70;12.70;;;16.00;99.90;;;;;;5220910;28;20025;-64
2022/10/08 08:29:53;;;;;;;27.23;16.63;;;16.00;99.90;;;;;;5197894;28;20035;-62
2022/10/08 08:32:27;;;;;;;30.23;16.60;;;16.10;99.90;;;;;;5216086;28;20029;-62
2022/10/08 08:35:04;;;;;;;29.20;16.90;;;16.00;99.90;;;;;;5218164;28;20552;-65
2022/10/08 08:37:40;;;;;;;30.33;16.05;;;15.90;99.90;;;;;;5183130;28;20029;-62
2022/10/08 08:40:13;;;;;;;27.67;16.52;;;15.90;99.90;;;;;;5200174;28;20033;-63
2022/10/08 08:42:55;;;;;;;20.08;13.88;;;16.20;99.90;;;;;;5235086;28;20025;-66
2022/10/08 08:45:32;;;;;;;18.80;13.18;;;16.30;99.90;;;;;;5219116;28;20044;-66
2022/10/08 08:48:16;;;;;;;30.73;17.40;;;16.70;99.90;;;;;;5217337;28;20504;-64
2022/10/08 08:50:49;;;;;;;21.77;14.45;;;16.70;99.90;;;;;;5199232;28;20042;-64
2022/10/08 08:53:22;;;;;;;27.90;16.17;;;16.70;99.90;;;;;;5200975;28;20088;-64
2022/10/08 08:55:55;;;;;;;29.45;18.63;;;17.00;99.90;;;;;;5205801;28;20025;-63
2022/10/08 08:58:50;;;;;;;32.47;18.05;;;16.80;99.90;;;;;;5224113;28;20932;-64
2022/10/08 09:01:41;;;;;;;33.40;18.25;;;16.80;99.90;;;;;;5215064;28;20031;-61
2022/10/08 09:04:43;;;;;;;30.10;17.85;;;16.80;99.90;;;;;;5188963;28;20034;-62
2022/10/08 09:07:19;;;;;;;28.48;17.30;;;16.60;99.90;;;;;;5242080;28;20039;-64
2022/10/08 09:09:57;;;;;;;33.50;16.35;;;16.90;99.90;;;;;;5218301;28;20027;-63
2022/10/08 09:12:45;;;;;;;25.42;15.68;;;17.20;99.90;;;;;;5198371;28;20035;-65
2022/10/08 09:15:25;;;;;;;28.95;17.17;;;17.80;99.90;;;;;;5232113;28;20333;-62
2022/10/08 09:18:01;;;;;;;27.63;17.02;;;18.30;99.90;;;;;;5200044;28;20221;-64
2022/10/08 09:20:38;;;;;;;35.00;18.00;;;18.40;99.90;;;;;;5193754;28;20040;-65
2022/10/08 09:23:21;;;;;;;31.33;17.60;;;18.30;99.90;;;;;;5182430;28;20031;-63
2022/10/08 09:26:02;;;;;;;29.73;17.40;;;18.30;99.90;;;;;;5207540;28;20040;-63
2022/10/08 09:28:46;;;;;;;35.42;18.10;;;18.30;99.90;;;;;;5174855;28;20033;-63
2022/10/08 09:31:39;;;;;;;32.90;17.65;;;18.50;99.90;;;;;;5174013;28;20718;-65
2022/10/08 09:34:11;;;;;;;28.30;15.50;;;18.80;99.90;;;;;;5229828;28;20037;-62
2022/10/08 09:37:13;;;;;;;26.73;16.05;;;19.20;99.90;;;;;;5200065;28;21088;-63
2022/10/08 09:40:25;;;;;;;22.77;15.02;;;19.40;99.90;;;;;;5215760;28;20032;-65
2022/10/08 09:43:15;;;;;;;27.05;15.38;;;19.60;99.90;;;;;;5184675;28;20341;-62
2022/10/08 09:45:48;;;;;;;31.48;16.98;;;19.00;99.90;;;;;;5198145;28;20029;-62
2022/10/08 09:48:30;;;;;;;23.55;16.23;;;19.20;99.90;;;;;;5196915;28;20485;-65
2022/10/08 09:51:07;;;;;;;26.17;15.20;;;19.20;99.90;;;;;;5192284;28;20045;-64
2022/10/08 09:53:52;;;;;;;26.50;15.30;;;19.40;99.90;;;;;;5201877;28;20020;-63
2022/10/08 09:56:29;;;;;;;25.13;16.05;;;19.70;99.90;;;;;;5182385;28;20040;-64
2022/10/08 09:59:04;;;;;;;24.45;15.20;;;19.60;99.90;;;;;;5214963;28;20032;-65
2022/10/08 10:01:47;;;;;;;25.48;15.10;;;19.70;99.90;;;;;;5193439;28;20345;-63
2022/10/08 10:04:28;;;;;;;23.30;13.70;;;20.20;99.90;;;;;;5219826;28;20055;-63
2022/10/08 10:07:00;;;;;;;20.65;13.73;;;21.00;99.90;;;;;;5201020;28;20032;-65
2022/10/08 10:09:37;;;;;;;19.90;13.93;;;21.80;99.90;;;;;;5213297;28;20037;-63
2022/10/08 10:12:28;;;;;;;23.30;14.38;;;22.00;99.90;;;;;;5217527;28;20028;-63
2022/10/08 10:15:21;;;;;;;19.02;13.13;;;21.50;99.90;;;;;;5248858;28;20388;-63
2022/10/08 10:18:09;;;;;;;22.52;13.48;;;22.00;99.90;;;;;;5197484;28;20029;-62
2022/10/08 10:20:45;;;;;;;22.33;13.35;;;22.20;99.90;;;;;;5218501;28;20039;-66
2022/10/08 10:23:23;;;;;;;20.67;13.32;;;22.80;99.90;;;;;;5197049;28;20051;-62
2022/10/08 10:26:10;;;;;;;17.90;11.82;;;22.60;99.90;;;;;;5218479;28;20051;-66
2022/10/08 10:29:14;;;;;;;22.50;12.80;;;22.80;99.90;;;;;;5218246;28;20029;-65
2022/10/08 10:32:01;;;;;;;19.33;12.93;;;23.20;99.90;;;;;;5216033;28;20039;-65
2022/10/08 10:34:37;;;;;;;20.58;11.70;;;23.20;99.90;;;;;;5195222;28;20043;-64
2022/10/08 10:37:22;;;;;;;18.67;11.93;;;23.70;99.90;;;;;;5215636;28;20371;-64
2022/10/08 10:40:12;;;;;;;;;;;23.90;99.90;;;;;;5230457;28;20029;-64
2022/10/08 10:42:57;;;;;;;17.77;9.95;;;25.00;99.90;;;;;;5198037;28;20189;-64
2022/10/08 10:45:33;;;;;;;16.55;9.65;;;25.70;99.90;;;;;;5212569;28;20135;-66
2022/10/08 10:48:07;;;;;;;20.88;10.77;;;26.30;99.90;;;;;;5213433;28;20019;-65
2022/10/08 10:50:56;;;;;;;16.77;10.50;;;26.30;99.90;;;;;;5176594;28;20317;-66
2022/10/08 10:53:53;;;;;;;13.07;8.85;;;27.60;99.90;;;;;;5227697;28;20032;-66
2022/10/08 10:56:32;;;;;;;14.90;8.80;;;27.80;99.90;;;;;;5194607;28;20017;-65
2022/10/08 10:59:24;;;;;;;14.75;9.90;;;28.70;99.90;;;;;;5216520;28;20055;-65
2022/10/08 11:02:33;;;;;;;16.80;8.80;;;28.50;99.90;;;;;;5216619;28;20021;-69
2022/10/08 11:05:27;;;;;;;13.55;9.88;;;29.00;99.90;;;;;;5195832;28;20063;-66
2022/10/08 11:08:07;;;;;;;14.82;10.52;;;28.20;99.90;;;;;;5221727;28;20544;-64
2022/10/08 11:11:16;;;;;;;13.40;8.48;;;27.20;99.90;;;;;;5209002;28;20062;-66
2022/10/08 11:14:04;;;;;;;14.20;9.80;;;27.50;99.90;;;;;;5217208;28;20032;-64
2022/10/08 11:16:40;;;;;;;13.90;9.60;;;28.70;99.90;;;;;;5214057;28;20027;-64
2022/10/08 11:19:34;;;;;;;13.88;9.50;;;27.60;99.90;;;;;;5216189;28;20020;-66
2022/10/08 11:22:18;;;;;;;13.60;9.40;;;26.70;99.90;;;;;;5189251;28;20032;-67
2022/10/08 11:25:15;;;;;;;12.63;9.15;;;27.70;99.90;;;;;;5196527;28;20289;-63
2022/10/08 11:28:02;;;;;;;15.10;9.70;;;28.80;99.90;;;;;;5216395;28;20020;-65
2022/10/08 11:30:45;;;;;;;12.73;9.40;;;28.30;99.90;;;;;;5230530;28;20059;-67
2022/10/08 11:33:17;;;;;;;21.75;10.25;;;28.60;99.90;;;;;;5215262;28;20473;-65
2022/10/08 11:36:14;;;;;;;12.85;9.30;;;28.60;99.90;;;;;;5216910;28;20024;-62
2022/10/08 11:39:16;;;;;;;15.48;9.70;;;27.70;99.90;;;;;;5197298;28;20017;-63
2022/10/08 11:42:10;;;;;;;16.52;9.35;;;27.80;99.90;;;;;;5169212;28;20056;-63
2022/10/08 11:44:44;;;;;;;17.03;9.90;;;28.00;99.90;;;;;;5173171;28;20025;-64
2022/10/08 11:47:54;;;;;;;19.23;11.18;;;28.60;99.90;;;;;;5160631;28;20312;-64
2022/10/08 11:50:40;;;;;;;18.40;11.98;;;27.70;99.90;;;;;;5115925;29;20033;-66
2022/10/08 11:53:14;;;;;;;18.05;11.98;;;26.70;99.90;;;;;;5139706;28;20082;-66
2022/10/08 11:56:00;;;;;;;17.90;11.90;;;26.30;99.90;;;;;;5156204;28;20189;-68
2022/10/08 11:58:34;;;;;;;16.17;11.30;;;26.50;99.90;;;;;;5149805;28;20037;-66
2022/10/08 12:01:08;;;;;;;19.48;13.35;;;26.60;99.90;;;;;;5156391;28;20040;-66
2022/10/08 12:03:40;;;;;;;16.38;11.48;;;26.40;99.90;;;;;;5156056;28;20026;-67
2022/10/08 12:06:25;;;;;;;15.57;10.80;;;26.20;99.90;;;;;;5142462;28;20248;-68
2022/10/08 12:09:00;;;;;;;18.45;11.50;;;26.20;99.90;;;;;;5149681;28;20269;-65
2022/10/08 12:11:31;;;;;;;16.65;11.15;;;27.80;99.90;;;;;;5164721;28;20036;-64
2022/10/08 12:14:12;;;;;;;17.48;10.45;;;29.10;99.90;;;;;;5173084;28;20038;-67
2022/10/08 12:16:57;;;;;;;18.60;11.73;;;29.60;99.90;;;;;;5157551;28;20352;-64
2022/10/08 12:19:32;;;;;;;17.35;11.90;;;28.60;99.90;;;;;;5159805;28;20318;-65
2022/10/08 12:22:15;;;;;;;;;;;28.00;99.90;;;;;;5192543;28;20033;-65
2022/10/08 12:24:51;;;;;;;25.10;12.05;;;27.80;99.90;;;;;;5199847;28;19912;-63
2022/10/08 12:27:27;;;;;;;15.50;10.65;;;28.40;99.90;;;;;;5196376;28;20350;-66
2022/10/08 12:30:07;;;;;;;19.55;13.55;;;28.10;99.90;;;;;;5198242;28;20051;-64
2022/10/08 12:32:41;;;;;;;17.95;11.48;;;27.70;99.90;;;;;;5199708;28;20018;-65
2022/10/08 12:35:32;;;;;;;18.10;12.23;;;27.30;99.90;;;;;;5198344;28;20029;-67
2022/10/08 12:38:17;;;;;;;18.85;12.13;;;26.50;99.90;;;;;;5229458;28;20022;-64
2022/10/08 12:41:13;;;;;;;18.77;11.80;;;25.50;99.90;;;;;;5201371;28;20276;-67
2022/10/08 12:44:12;;;;;;;18.63;11.75;;;26.00;99.90;;;;;;5199026;28;20317;-65
2022/10/08 12:47:08;;;;;;;15.40;11.27;;;26.70;99.90;;;;;;5196576;28;20179;-66
2022/10/08 12:50:03;;;;;;;15.07;11.00;;;27.70;99.90;;;;;;5199626;28;20217;-68
2022/10/08 12:52:36;;;;;;;15.90;10.30;;;28.60;99.90;;;;;;5199541;28;20017;-67
2022/10/08 12:55:19;;;;;;;15.68;11.52;;;29.50;99.90;;;;;;5199107;28;20222;-64
2022/10/08 12:57:51;;;;;;;20.00;11.25;;;29.20;99.90;;;;;;5199502;28;20464;-66
2022/10/08 13:00:27;;;;;;;15.23;11.07;;;29.20;99.90;;;;;;5199501;28;20017;-66
2022/10/08 13:03:03;;;;;;;15.85;11.70;;;28.20;99.90;;;;;;5199677;28;20026;-68
2022/10/08 13:05:39;;;;;;;17.35;11.50;;;27.60;99.90;;;;;;5203290;28;20362;-66
2022/10/08 13:08:37;;;;;;;15.20;10.30;;;26.70;99.90;;;;;;5206732;28;20017;-65
2022/10/08 13:11:14;;;;;;;16.13;10.93;;;26.80;99.90;;;;;;5194737;28;20294;-65
2022/10/08 13:13:49;;;;;;;17.95;11.02;;;26.90;99.90;;;;;;5214818;28;20329;-66
2022/10/08 13:16:29;;;;;;;19.27;12.27;;;27.90;99.90;;;;;;5218750;28;20336;-66
2022/10/08 13:19:15;;;;;;;15.02;10.70;;;28.60;99.90;;;;;;5202621;28;20043;-66
2022/10/08 13:21:58;;;;;;;18.27;12.23;;;28.10;99.90;;;;;;5237762;28;20216;-65
2022/10/08 13:24:35;;;;;;;19.48;11.48;;;26.60;99.90;;;;;;5223456;28;20023;-65
2022/10/08 13:27:26;;;;;;;16.88;12.00;;;25.70;99.90;;;;;;5221306;28;20336;-65